map of WLD home
WLD - Airport
Location
City:  Winfield/Arkansas City, Kansas, United States
Name:Strother Field
ICAO:KWLD
IATA:WLD
FAA LID:WLD

Details
Type:Airport (Airfield)
Use:Public/Civil
Latitude:3710'07"N (37.168611)
Longitude:9702'15"W (-97.037527)
Datum:WGS 1984
Elevation:1160 ft (354 m)
Variation:3.32E (WMM2015v2 magnetic declination)
-0.09 annual change
Runways:2
Longest:5506 × 100 ft (1678 × 30.5 m), paved

Time
Time Zone:UTC-6 (DST-5)
Local Time:

Weather
METAR:KWLD 041354Z AUTO 36014KT 6SM BR OVC006 03/02 A2983 RMK AO2 PK WND 34032/1300 SLP102 T00280022

Related Locations
Nearby:
Farthest:RRG: 10753 mi / 17306 km
Plaine Corail [Sir Gatan Duval Airport (Plaine Corail Airport)], Rodrigues Island, MU

Find:

   beyond  
but within

Other Information
Maps:
NOTAMs:
Links:
Sources:

  
  • flag of United States
  • flag of Kansas
  

Sectional Chart

Flight Planning
at skyvector.com

Satellite Image

Google Maps Satellite view

 

Copyright © 2004-2019 Karl L. Swartz. All rights reserved.
The Great Circle Mapper name and logo are trademarks of the Great Circle Mapper.
All other trademarks mentioned herein belong to their respective owners.
Please see credits for attibutions and further copyright information.

  Follow gcmap on Facebook Follow gcmap on Twitter GCmap on LinkedIn

hCard Microformat

Geo Microformat